Home > Products > Valid Products > TAF

000
FTUS46 KOTX 190117 AAA
TAFEAT
TAF AMD
KEAT 190117Z 1901/1924 00000KT 2SM BR VCSH OVC010
     FM190400 VRB02KT 3SM -RA BR BKN008 OVC015
     FM191600 VRB03KT 5SM BR OVC010
     FM192000 29004KT P6SM SCT015 BKN070=



000
FTUS46 KOTX 190103 AAA
TAFGEG
TAF AMD
KGEG 190103Z 1901/1924 06004KT 3/4SM BR BKN002 OVC035
     FM190800 13005KT P6SM -RA BKN015 OVC025
     FM191300 14006KT 4SM -RA BR BKN008 OVC015
     FM192000 21010KT P6SM OVC012=



000
FTUS46 KOTX 190103 AAA
TAFGEG
TAF AMD
KGEG 190103Z 1901/1924 06004KT 3/4SM BR BKN002 OVC035
     FM190800 13005KT P6SM -RA BKN015 OVC025
     FM191300 14006KT 4SM -RA BR BKN008 OVC015
     FM192000 21010KT P6SM OVC012=



000
FTUS46 KOTX 182328
TAFLWS
TAF
KLWS 182328Z 1900/1924 19004KT P6SM FEW060 BKN090
     FM190600 12007KT P6SM BKN110
     FM191200 13004KT P6SM -RA OVC060
     FM191800 12004KT 6SM -RA BR SCT020 OVC040
     FM192200 27005KT P6SM -SHRA SCT040 OVC050=



000
FTUS46 KOTX 182328
TAFPUW
TAF
KPUW 182328Z 1900/1924 11005KT P6SM BKN040 OVC050
     FM190600 12010KT P6SM BKN050 OVC080
     FM191200 12009KT P6SM -RA BKN025 OVC040
     FM191700 15008KT 4SM -RA BR BKN012 OVC020
     FM192100 20010KT P6SM -SHRA BKN015 OVC025=



000
FTUS46 KOTX 182328
TAFMWH
TAF
KMWH 182328Z 1900/1924 11004KT P6SM VCSH BKN009 OVC020
     FM190500 05005KT 3SM -RA BR OVC005
     FM191500 15005KT 5SM BR OVC007
     FM191900 20008KT P6SM SCT010 BKN080=



000
FTUS46 KOTX 182328
TAFEAT
TAF
KEAT 182328Z 1900/1924 VRB02KT P6SM VCSH BKN012 OVC020
     FM190400 VRB02KT 3SM -RA BR BKN008 OVC015
     FM191600 VRB03KT 5SM BR OVC010
     FM192000 29004KT P6SM SCT015 BKN070=



000
FTUS46 KOTX 182328
TAFGEG
TAF
KGEG 182328Z 1900/1924 18005KT P6SM SCT020 BKN040 OVC070
     FM190800 13005KT P6SM -RA BKN015 OVC025
     FM191300 14006KT 4SM -RA BR BKN008 OVC015
     FM192000 21010KT P6SM OVC012=



000
FTUS46 KOTX 182328
TAFLWS
TAF
KLWS 182328Z 1900/1924 19004KT P6SM FEW060 BKN090
     FM190600 12007KT P6SM BKN110
     FM191200 13004KT P6SM -RA OVC060
     FM191800 12004KT 6SM -RA BR SCT020 OVC040
     FM192200 27005KT P6SM -SHRA SCT040 OVC050=



000
FTUS46 KOTX 182328
TAFCOE
TAF
KCOE 182328Z 1900/1924 00000KT P6SM VCSH BKN035 OVC070
     FM191000 VRB02KT P6SM -RA BKN020 OVC030
     FM191500 VRB03KT 4SM -RA BR BKN012 OVC020
     FM192100 21005KT P6SM OVC015
      AMD LTD TO CLD AND VIS=



000
FTUS46 KOTX 182328
TAFSFF
TAF
KSFF 182328Z 1900/1924 00000KT P6SM SCT025 BKN050 OVC070
     FM190800 VRB02KT P6SM -RA BKN020 OVC030
     FM191300 VRB03KT 4SM -RA BR BKN012 OVC020
     FM192000 21005KT P6SM OVC015=



000
FTUS46 KOTX 182328
TAFMWH
TAF
KMWH 182328Z 1900/1924 11004KT P6SM VCSH BKN009 OVC020
     FM190500 05005KT 3SM -RA BR OVC005
     FM191500 15005KT 5SM BR OVC007
     FM191900 20008KT P6SM SCT010 BKN080=



000
FTUS46 KOTX 182328
TAFPUW
TAF
KPUW 182328Z 1900/1924 11005KT P6SM BKN040 OVC050
     FM190600 12010KT P6SM BKN050 OVC080
     FM191200 12009KT P6SM -RA BKN025 OVC040
     FM191700 15008KT 4SM -RA BR BKN012 OVC020
     FM192100 20010KT P6SM -SHRA BKN015 OVC025=



000
FTUS46 KOTX 182328
TAFEAT
TAF
KEAT 182328Z 1900/1924 VRB02KT P6SM VCSH BKN012 OVC020
     FM190400 VRB02KT 3SM -RA BR BKN008 OVC015
     FM191600 VRB03KT 5SM BR OVC010
     FM192000 29004KT P6SM SCT015 BKN070=



000
FTUS46 KOTX 181735
TAFMWH
TAF
KMWH 181735Z 1818/1918 14007KT 4SM BR OVC004
     FM182000 12005KT P6SM BKN010 OVC020
     FM190500 05005KT 3SM -RA BR OVC005
     FM191500 15005KT 5SM BR OVC007=



000
FTUS46 KOTX 181735
TAFEAT
TAF
KEAT 181735Z 1818/1918 00000KT 2SM BR OVC002
     FM182000 00000KT 4SM BR OVC005
     FM182300 00000KT 6SM BR OVC009
     FM190400 VRB02KT 3SM -RA BR BKN008 OVC015
     FM191100 VRB03KT 5SM BR OVC010=



000
FTUS46 KOTX 181735
TAFPUW
TAF
KPUW 181735Z 1818/1918 11005KT P6SM BKN070 OVC100
     FM190600 12010KT P6SM BKN100
     FM191400 14009KT 5SM -RA BKN025 OVC040=



000
FTUS46 KOTX 181735
TAFCOE
TAF
KCOE 181735Z 1818/1918 18005KT P6SM VCSH SCT015 OVC025
     FM182000 12005KT P6SM VCSH BKN025 OVC035
     FM191400 14006KT 4SM -RA BR BKN012 OVC020
      AMD LTD TO CLD AND VIS=



000
FTUS46 KOTX 181735
TAFLWS
TAF
KLWS 181735Z 1818/1918 10002KT P6SM BKN090
     FM190600 12007KT P6SM BKN110
     FM191600 13004KT P6SM -RA OVC060=



000
FTUS46 KOTX 181735
TAFGEG
TAF
KGEG 181735Z 1818/1918 22005KT 5SM BR BKN008 OVC012
     FM182000 17006KT P6SM OVC015
     FM182200 12005KT P6SM BKN020 OVC030
     FM191300 14006KT 4SM -RA BR BKN008 OVC015=



000
FTUS46 KOTX 181735
TAFSFF
TAF
KSFF 181735Z 1818/1918 20003KT P6SM OVC015
     FM182000 12005KT P6SM BKN025 OVC035
     FM191300 14006KT 4SM -RA BR BKN012 OVC020=



000
FTUS46 KOTX 181735
TAFEAT
TAF
KEAT 181735Z 1818/1918 00000KT 2SM BR OVC002
     FM182000 00000KT 4SM BR OVC005
     FM182300 00000KT 6SM BR OVC009
     FM190400 VRB02KT 3SM -RA BR BKN008 OVC015
     FM191100 VRB03KT 5SM BR OVC010=



000
FTUS46 KOTX 181735
TAFPUW
TAF
KPUW 181735Z 1818/1918 11005KT P6SM BKN070 OVC100
     FM190600 12010KT P6SM BKN100
     FM191400 14009KT 5SM -RA BKN025 OVC040=



000
FTUS46 KOTX 181735
TAFCOE
TAF
KCOE 181735Z 1818/1918 18005KT P6SM VCSH SCT015 OVC025
     FM182000 12005KT P6SM VCSH BKN025 OVC035
     FM191400 14006KT 4SM -RA BR BKN012 OVC020
      AMD LTD TO CLD AND VIS=



000
FTUS46 KOTX 181735
TAFSFF
TAF
KSFF 181735Z 1818/1918 20003KT P6SM OVC015
     FM182000 12005KT P6SM BKN025 OVC035
     FM191300 14006KT 4SM -RA BR BKN012 OVC020=



000
FTUS46 KOTX 181735
TAFMWH
TAF
KMWH 181735Z 1818/1918 14007KT 4SM BR OVC004
     FM182000 12005KT P6SM BKN010 OVC020
     FM190500 05005KT 3SM -RA BR OVC005
     FM191500 15005KT 5SM BR OVC007=



000
FTUS46 KOTX 181735
TAFGEG
TAF
KGEG 181735Z 1818/1918 22005KT 5SM BR BKN008 OVC012
     FM182000 17006KT P6SM OVC015
     FM182200 12005KT P6SM BKN020 OVC030
     FM191300 14006KT 4SM -RA BR BKN008 OVC015=



000
FTUS46 KOTX 181735
TAFLWS
TAF
KLWS 181735Z 1818/1918 10002KT P6SM BKN090
     FM190600 12007KT P6SM BKN110
     FM191600 13004KT P6SM -RA OVC060=



000
FTUS46 KOTX 181618 AAB
TAFPUW
TAF AMD
KPUW 181618Z 1816/1912 11005KT P6SM SCT030 OVC080
     FM181900 14007KT P6SM OVC045
     FM190600 12010KT P6SM SCT025 OVC050 PROB30 1908/1912 5SM -RA BR
      OVC030=



000
FTUS46 KOTX 181618 AAB
TAFPUW
TAF AMD
KPUW 181618Z 1816/1912 11005KT P6SM SCT030 OVC080
     FM181900 14007KT P6SM OVC045
     FM190600 12010KT P6SM SCT025 OVC050 PROB30 1908/1912 5SM -RA BR
      OVC030=



000
FTUS46 KOTX 181617 AAA
TAFCOE
TAF AMD
KCOE 181617Z 1816/1912 18003KT P6SM OVC015
     FM182200 16005KT P6SM SCT025 OVC040
     FM190600 06008KT 6SM BR OVC015
      AMD LTD TO CLD AND VIS=



000
FTUS46 KOTX 181617 AAA
TAFCOE
TAF AMD
KCOE 181617Z 1816/1912 18003KT P6SM OVC015
     FM182200 16005KT P6SM SCT025 OVC040
     FM190600 06008KT 6SM BR OVC015
      AMD LTD TO CLD AND VIS=



000
FTUS46 KOTX 181617 AAB
TAFSFF
TAF AMD
KSFF 181617Z 1816/1912 00000KT P6SM OVC015
     FM181800 19003KT P6SM OVC024
     FM182000 VRB03KT P6SM SCT030 OVC050
     FM190600 14003KT P6SM OVC015=



000
FTUS46 KOTX 181617 AAB
TAFSFF
TAF AMD
KSFF 181617Z 1816/1912 00000KT P6SM OVC015
     FM181800 19003KT P6SM OVC024
     FM182000 VRB03KT P6SM SCT030 OVC050
     FM190600 14003KT P6SM OVC015=



000
FTUS46 KOTX 181616 AAB
TAFGEG
TAF AMD
KGEG 181616Z 1816/1912 20004KT 4SM BR BKN006 OVC010
     FM181800 17006KT P6SM BKN009 OVC012
     FM182000 15006KT P6SM SCT025 OVC040
     FM190600 12006KT 2SM BR OVC005=



000
FTUS46 KOTX 181616 AAB
TAFGEG
TAF AMD
KGEG 181616Z 1816/1912 20004KT 4SM BR BKN006 OVC010
     FM181800 17006KT P6SM BKN009 OVC012
     FM182000 15006KT P6SM SCT025 OVC040
     FM190600 12006KT 2SM BR OVC005=



000
FTUS46 KOTX 181521 AAA
TAFEAT
TAF AMD
KEAT 181521Z 1815/1912 00000KT 5SM BR OVC005
     FM181800 14002KT 6SM BR OVC015
     FM190300 VRB02KT 3SM -RA BR BKN008 OVC015=



000
FTUS46 KOTX 181521 AAA
TAFEAT
TAF AMD
KEAT 181521Z 1815/1912 00000KT 5SM BR OVC005
     FM181800 14002KT 6SM BR OVC015
     FM190300 VRB02KT 3SM -RA BR BKN008 OVC015=



000
FTUS46 KOTX 181310 AAA
TAFPUW
TAF AMD
KPUW 181310Z 1813/1912 11007KT P6SM VCSH FEW035 OVC060
     FM181600 13003KT 5SM BR BKN018 OVC022
     FM181900 14007KT P6SM OVC045
     FM190600 12010KT P6SM SCT025 OVC050 PROB30 1908/1912 5SM -RA BR
      OVC030=



000
FTUS46 KOTX 181310 AAA
TAFPUW
TAF AMD
KPUW 181310Z 1813/1912 11007KT P6SM VCSH FEW035 OVC060
     FM181600 13003KT 5SM BR BKN018 OVC022
     FM181900 14007KT P6SM OVC045
     FM190600 12010KT P6SM SCT025 OVC050 PROB30 1908/1912 5SM -RA BR
      OVC030=



000
FTUS46 KOTX 181310 AAA
TAFPUW
TAF AMD
KPUW 181310Z 1813/1912 11007KT P6SM VCSH FEW035 OVC060
     FM181600 13003KT 5SM BR BKN018 OVC022
     FM181900 14007KT P6SM OVC045
     FM190600 12010KT P6SM SCT025 OVC050 PROB30 1908/1912 5SM -RA BR
      OVC030=



000
FTUS46 KOTX 181309 AAA
TAFMWH
TAF AMD
KMWH 181309Z 1813/1912 14003KT 2SM BR OVC002
      TEMPO 1813/1815 1SM BR
     FM182100 12005KT P6SM BKN030 OVC200
     FM190400 05005KT P6SM -RA OVC025=



000
FTUS46 KOTX 181309 AAA
TAFMWH
TAF AMD
KMWH 181309Z 1813/1912 14003KT 2SM BR OVC002
      TEMPO 1813/1815 1SM BR
     FM182100 12005KT P6SM BKN030 OVC200
     FM190400 05005KT P6SM -RA OVC025=



000
FTUS46 KOTX 181309 AAA
TAFMWH
TAF AMD
KMWH 181309Z 1813/1912 14003KT 2SM BR OVC002
      TEMPO 1813/1815 1SM BR
     FM182100 12005KT P6SM BKN030 OVC200
     FM190400 05005KT P6SM -RA OVC025=



000
FTUS46 KOTX 181309 AAA
TAFMWH
TAF AMD
KMWH 181309Z 1813/1912 14003KT 2SM BR OVC002
      TEMPO 1813/1815 1SM BR
     FM182100 12005KT P6SM BKN030 OVC200
     FM190400 05005KT P6SM -RA OVC025=



000
FTUS46 KOTX 181307 AAA
TAFSFF
TAF AMD
KSFF 181307Z 1813/1912 00000KT 5SM BR SCT010 OVC013
     FM181800 19003KT P6SM OVC024
     FM182000 VRB03KT P6SM SCT030 OVC050
     FM190600 14003KT P6SM OVC015=



000
FTUS46 KOTX 181307 AAA
TAFSFF
TAF AMD
KSFF 181307Z 1813/1912 00000KT 5SM BR SCT010 OVC013
     FM181800 19003KT P6SM OVC024
     FM182000 VRB03KT P6SM SCT030 OVC050
     FM190600 14003KT P6SM OVC015=



000
FTUS46 KOTX 181307 AAA
TAFSFF
TAF AMD
KSFF 181307Z 1813/1912 00000KT 5SM BR SCT010 OVC013
     FM181800 19003KT P6SM OVC024
     FM182000 VRB03KT P6SM SCT030 OVC050
     FM190600 14003KT P6SM OVC015=



000
FTUS46 KOTX 181307 AAA
TAFSFF
TAF AMD
KSFF 181307Z 1813/1912 00000KT 5SM BR SCT010 OVC013
     FM181800 19003KT P6SM OVC024
     FM182000 VRB03KT P6SM SCT030 OVC050
     FM190600 14003KT P6SM OVC015=



000
FTUS46 KOTX 181306 AAA
TAFGEG
TAF AMD
KGEG 181306Z 1813/1912 17004KT 1SM BR OVC002
     FM181800 17006KT P6SM BKN009 OVC012
     FM182000 15006KT P6SM SCT025 OVC040
     FM190600 12006KT 2SM BR OVC005=



000
FTUS46 KOTX 181306 AAA
TAFGEG
TAF AMD
KGEG 181306Z 1813/1912 17004KT 1SM BR OVC002
     FM181800 17006KT P6SM BKN009 OVC012
     FM182000 15006KT P6SM SCT025 OVC040
     FM190600 12006KT 2SM BR OVC005=



000
FTUS46 KOTX 181306 AAA
TAFGEG
TAF AMD
KGEG 181306Z 1813/1912 17004KT 1SM BR OVC002
     FM181800 17006KT P6SM BKN009 OVC012
     FM182000 15006KT P6SM SCT025 OVC040
     FM190600 12006KT 2SM BR OVC005=



000
FTUS46 KOTX 181306 AAA
TAFGEG
TAF AMD
KGEG 181306Z 1813/1912 17004KT 1SM BR OVC002
     FM181800 17006KT P6SM BKN009 OVC012
     FM182000 15006KT P6SM SCT025 OVC040
     FM190600 12006KT 2SM BR OVC005=



000
FTUS46 KOTX 181158 CCA
TAFMWH
TAF COR
KMWH 181158Z 1812/1912 16003KT 5SM BR OVC003
     FM182100 12005KT P6SM BKN030 OVC200
     FM190400 05005KT P6SM -RA OVC025=



000
FTUS46 KOTX 181158 CCA
TAFMWH
TAF COR
KMWH 181158Z 1812/1912 16003KT 5SM BR OVC003
     FM182100 12005KT P6SM BKN030 OVC200
     FM190400 05005KT P6SM -RA OVC025=



000
FTUS46 KOTX 181158 CCA
TAFCOE
TAF COR
KCOE 181158Z 1812/1912 06003KT 5SM BR VCSH BKN005 OVC025
     FM181400 17005KT 3SM BR OVC015
     FM182200 16005KT P6SM SCT025 OVC040
     FM190600 06008KT 6SM BR OVC015
      AMD LTD TO CLD AND VIS=



000
FTUS46 KOTX 181158 CCA
TAFCOE
TAF COR
KCOE 181158Z 1812/1912 06003KT 5SM BR VCSH BKN005 OVC025
     FM181400 17005KT 3SM BR OVC015
     FM182200 16005KT P6SM SCT025 OVC040
     FM190600 06008KT 6SM BR OVC015
      AMD LTD TO CLD AND VIS=



000
FTUS46 KOTX 181158 CCA
TAFCOE
TAF COR
KCOE 181158Z 1812/1912 06003KT 5SM BR VCSH BKN005 OVC025
     FM181400 17005KT 3SM BR OVC015
     FM182200 16005KT P6SM SCT025 OVC040
     FM190600 06008KT 6SM BR OVC015
      AMD LTD TO CLD AND VIS=



000
FTUS46 KOTX 181158 CCA
TAFCOE
TAF COR
KCOE 181158Z 1812/1912 06003KT 5SM BR VCSH BKN005 OVC025
     FM181400 17005KT 3SM BR OVC015
     FM182200 16005KT P6SM SCT025 OVC040
     FM190600 06008KT 6SM BR OVC015
      AMD LTD TO CLD AND VIS=



000
FTUS46 KOTX 181158 CCA
TAFMWH
TAF COR
KMWH 181158Z 1812/1912 16003KT 5SM BR OVC003
     FM182100 12005KT P6SM BKN030 OVC200
     FM190400 05005KT P6SM -RA OVC025=



000
FTUS46 KOTX 181136
TAFSFF
TAF
KSFF 181136Z 1812/1912 00000KT P6SM VCSH BKN013 OVC030
     FM181400 19003KT 5SM BR SCT010 OVC018
     FM181800 19003KT P6SM OVC024
     FM182000 VRB03KT P6SM SCT030 OVC050
     FM190600 14003KT P6SM OVC015=



000
FTUS46 KOTX 181136
TAFMWH
TAF
KMWH 181136Z 1812/1912 16005KT 5SM BR OVC020
     FM182100 12005KT P6SM BKN030 OVC200
     FM190400 05005KT P6SM -RA OVC025=



000
FTUS46 KOTX 181136
TAFPUW
TAF
KPUW 181136Z 1812/1912 VRB03KT 5SM BR VCSH BKN025 OVC030
     FM181500 13003KT 5SM BR BKN018 OVC022
     FM181800 14007KT P6SM OVC045
     FM190600 12010KT P6SM SCT025 OVC050 PROB30 1908/1912 5SM -RA BR
      OVC030=



000
FTUS46 KOTX 181136
TAFCOE
TAF
KCOE 181136Z 1812/1912 06006KT 3SM BR VCSH SCT002 SCT030 OVC035
     FM181400 17005KT 3SM BR OVC015
     FM182200 16005KT P6SM SCT025 OVC040
     FM190600 06008KT 6SM BR OVC015
      AMD LTD TO CLD AND VIS=



000
FTUS46 KOTX 181136
TAFGEG
TAF
KGEG 181136Z 1812/1912 19004KT P6SM VCSH OVC005
     FM181400 17004KT 3SM BR SCT005 OVC009
     FM181800 17006KT P6SM BKN009 OVC020
     FM182000 15006KT P6SM SCT025 OVC040
     FM190600 12006KT 2SM BR OVC005=



000
FTUS46 KOTX 181136
TAFLWS
TAF
KLWS 181136Z 1812/1912 12003KT P6SM VCSH OVC045
     FM181600 10002KT P6SM OVC060
     FM190600 12007KT P6SM OVC060 PROB30 1908/1912 -RA OVC045=



000
FTUS46 KOTX 181136
TAFMWH
TAF
KMWH 181136Z 1812/1912 16005KT 5SM BR OVC020
     FM182100 12005KT P6SM BKN030 OVC200
     FM190400 05005KT P6SM -RA OVC025=



000
FTUS46 KOTX 181136
TAFCOE
TAF
KCOE 181136Z 1812/1912 06006KT 3SM BR VCSH SCT002 SCT030 OVC035
     FM181400 17005KT 3SM BR OVC015
     FM182200 16005KT P6SM SCT025 OVC040
     FM190600 06008KT 6SM BR OVC015
      AMD LTD TO CLD AND VIS=



000
FTUS46 KOTX 181136
TAFLWS
TAF
KLWS 181136Z 1812/1912 12003KT P6SM VCSH OVC045
     FM181600 10002KT P6SM OVC060
     FM190600 12007KT P6SM OVC060 PROB30 1908/1912 -RA OVC045=



000
FTUS46 KOTX 181136
TAFSFF
TAF
KSFF 181136Z 1812/1912 00000KT P6SM VCSH BKN013 OVC030
     FM181400 19003KT 5SM BR SCT010 OVC018
     FM181800 19003KT P6SM OVC024
     FM182000 VRB03KT P6SM SCT030 OVC050
     FM190600 14003KT P6SM OVC015=



000
FTUS46 KOTX 181136
TAFGEG
TAF
KGEG 181136Z 1812/1912 19004KT P6SM VCSH OVC005
     FM181400 17004KT 3SM BR SCT005 OVC009
     FM181800 17006KT P6SM BKN009 OVC020
     FM182000 15006KT P6SM SCT025 OVC040
     FM190600 12006KT 2SM BR OVC005=



000
FTUS46 KOTX 181136
TAFEAT
TAF
KEAT 181136Z 1812/1912 VRB03KT 5SM BR OVC021
     FM181800 14002KT 6SM BR OVC015
     FM190300 VRB02KT 3SM -RA BR BKN008 OVC015=



000
FTUS46 KOTX 181136
TAFPUW
TAF
KPUW 181136Z 1812/1912 VRB03KT 5SM BR VCSH BKN025 OVC030
     FM181500 13003KT 5SM BR BKN018 OVC022
     FM181800 14007KT P6SM OVC045
     FM190600 12010KT P6SM SCT025 OVC050 PROB30 1908/1912 5SM -RA BR
      OVC030=



000
FTUS46 KOTX 181136
TAFEAT
TAF
KEAT 181136Z 1812/1912 VRB03KT 5SM BR OVC021
     FM181800 14002KT 6SM BR OVC015
     FM190300 VRB02KT 3SM -RA BR BKN008 OVC015=



000
FTUS46 KOTX 181022 AAB
TAFGEG
TAF AMD
KGEG 181022Z 1810/1906 19004KT P6SM VCSH BKN006 OVC030
     FM181200 16004KT 3SM BR SCT005 OVC009
     FM181800 17006KT P6SM BKN009 OVC020
     FM182000 15006KT P6SM SCT025 OVC040=



000
FTUS46 KOTX 181022 AAB
TAFGEG
TAF AMD
KGEG 181022Z 1810/1906 19004KT P6SM VCSH BKN006 OVC030
     FM181200 16004KT 3SM BR SCT005 OVC009
     FM181800 17006KT P6SM BKN009 OVC020
     FM182000 15006KT P6SM SCT025 OVC040=



000
FTUS46 KOTX 181021 AAB
TAFCOE
TAF AMD
KCOE 181021Z 1810/1906 05003KT 6SM BR BKN030 OVC035
     FM181300 17005KT 3SM BR OVC015
     FM182200 16005KT P6SM SCT025 OVC040
     FM190300 10007KT P6SM OVC040
      AMD LTD TO CLD AND VIS=



000
FTUS46 KOTX 181021 AAB
TAFCOE
TAF AMD
KCOE 181021Z 1810/1906 05003KT 6SM BR BKN030 OVC035
     FM181300 17005KT 3SM BR OVC015
     FM182200 16005KT P6SM SCT025 OVC040
     FM190300 10007KT P6SM OVC040
      AMD LTD TO CLD AND VIS=



000
FTUS46 KOTX 180824 AAA
TAFGEG
TAF AMD
KGEG 180824Z 1808/1906 09004KT P6SM VCSH SCT035 OVC045
     FM181000 16004KT 3SM BR SCT005 OVC009
     FM181800 17006KT P6SM BKN009 OVC020
     FM182000 15006KT P6SM SCT025 OVC040=



000
FTUS46 KOTX 180824 AAA
TAFGEG
TAF AMD
KGEG 180824Z 1808/1906 09004KT P6SM VCSH SCT035 OVC045
     FM181000 16004KT 3SM BR SCT005 OVC009
     FM181800 17006KT P6SM BKN009 OVC020
     FM182000 15006KT P6SM SCT025 OVC040=



000
FTUS46 KOTX 180824 AAA
TAFGEG
TAF AMD
KGEG 180824Z 1808/1906 09004KT P6SM VCSH SCT035 OVC045
     FM181000 16004KT 3SM BR SCT005 OVC009
     FM181800 17006KT P6SM BKN009 OVC020
     FM182000 15006KT P6SM SCT025 OVC040=



000
FTUS46 KOTX 180824 AAA
TAFGEG
TAF AMD
KGEG 180824Z 1808/1906 09004KT P6SM VCSH SCT035 OVC045
     FM181000 16004KT 3SM BR SCT005 OVC009
     FM181800 17006KT P6SM BKN009 OVC020
     FM182000 15006KT P6SM SCT025 OVC040=



000
FTUS46 KOTX 180822 AAA
TAFCOE
TAF AMD
KCOE 180822Z 1808/1906 04006KT P6SM VCSH BKN004 BKN028 OVC045
     FM181030 08004KT 5SM BR SCT018 OVC021
     FM181500 17005KT 4SM BR OVC015
     FM182200 16005KT P6SM SCT025 OVC040
     FM190300 10007KT P6SM OVC040
      AMD LTD TO CLD AND VIS=



000
FTUS46 KOTX 180822 AAA
TAFCOE
TAF AMD
KCOE 180822Z 1808/1906 04006KT P6SM VCSH BKN004 BKN028 OVC045
     FM181030 08004KT 5SM BR SCT018 OVC021
     FM181500 17005KT 4SM BR OVC015
     FM182200 16005KT P6SM SCT025 OVC040
     FM190300 10007KT P6SM OVC040
      AMD LTD TO CLD AND VIS=



000
FTUS46 KOTX 180822 AAA
TAFCOE
TAF AMD
KCOE 180822Z 1808/1906 04006KT P6SM VCSH BKN004 BKN028 OVC045
     FM181030 08004KT 5SM BR SCT018 OVC021
     FM181500 17005KT 4SM BR OVC015
     FM182200 16005KT P6SM SCT025 OVC040
     FM190300 10007KT P6SM OVC040
      AMD LTD TO CLD AND VIS=



000
FTUS46 KOTX 180711 AAA
TAFMWH
TAF AMD
KMWH 180711Z 1807/1906 VRB03KT P6SM BKN015 OVC025
     FM181000 15002KT P6SM OVC025
     FM182100 12005KT P6SM SCT030 OVC200
     FM190400 05005KT P6SM -RA OVC050=



000
FTUS46 KOTX 180711 AAA
TAFMWH
TAF AMD
KMWH 180711Z 1807/1906 VRB03KT P6SM BKN015 OVC025
     FM181000 15002KT P6SM OVC025
     FM182100 12005KT P6SM SCT030 OVC200
     FM190400 05005KT P6SM -RA OVC050=



000
FTUS46 KOTX 180539
TAFGEG
TAF
KGEG 180539Z 1806/1906 04004KT P6SM -RA SCT030 OVC050
     FM180800 10004KT 6SM -RA BR OVC025
     FM181100 18004KT 3SM -RA BR SCT005 OVC009
     FM181800 17006KT P6SM BKN009 OVC020
     FM182000 15006KT P6SM SCT025 OVC040=



000
FTUS46 KOTX 180539
TAFEAT
TAF
KEAT 180539Z 1806/1906 VRB03KT 6SM BR FEW003 SCT018 OVC025
     FM190100 VRB02KT 4SM BR SCT008 BKN015 OVC025=



000
FTUS46 KOTX 180539
TAFPUW
TAF
KPUW 180539Z 1806/1906 10005KT P6SM -RA SCT020 OVC040
     FM181800 13007KT P6SM OVC050
     FM190300 12010KT P6SM FEW080 SCT120 BKN200=



000
FTUS46 KOTX 180539
TAFSFF
TAF
KSFF 180539Z 1806/1906 00000KT P6SM -RA OVC040
     FM180830 00000KT P6SM -RA BKN024 OVC035
     FM181100 20003KT 5SM -RA SCT010 OVC018
     FM181800 19003KT P6SM SCT020 OVC030
     FM182000 VRB03KT P6SM SCT030 OVC050=



000
FTUS46 KOTX 180539
TAFMWH
TAF
KMWH 180539Z 1806/1906 VRB02KT P6SM SCT030 BKN050 OVC070
     FM181000 15002KT P6SM OVC030
     FM182100 12005KT P6SM SCT030 OVC200
     FM190400 05005KT P6SM -RA OVC050=



000
FTUS46 KOTX 180539
TAFLWS
TAF
KLWS 180539Z 1806/1906 12003KT P6SM -SHRA OVC060
     FM181800 14004KT P6SM BKN070
     FM190300 11004KT P6SM FEW100 SCT120 BKN200=



000
FTUS46 KOTX 180539
TAFCOE
TAF
KCOE 180539Z 1806/1906 05006KT P6SM -RA SCT025 OVC040
     FM180830 08004KT 6SM -RA BR SCT018 OVC025
     FM181500 17005KT 6SM -RA BR SCT018 OVC025
     FM182200 16005KT P6SM SCT025 OVC040
     FM190300 10007KT P6SM OVC040
      AMD LTD TO CLD AND VIS=



000
FTUS46 KOTX 180539
TAFLWS
TAF
KLWS 180539Z 1806/1906 12003KT P6SM -SHRA OVC060
     FM181800 14004KT P6SM BKN070
     FM190300 11004KT P6SM FEW100 SCT120 BKN200=



000
FTUS46 KOTX 180539
TAFMWH
TAF
KMWH 180539Z 1806/1906 VRB02KT P6SM SCT030 BKN050 OVC070
     FM181000 15002KT P6SM OVC030
     FM182100 12005KT P6SM SCT030 OVC200
     FM190400 05005KT P6SM -RA OVC050=



000
FTUS46 KOTX 180539
TAFCOE
TAF
KCOE 180539Z 1806/1906 05006KT P6SM -RA SCT025 OVC040
     FM180830 08004KT 6SM -RA BR SCT018 OVC025
     FM181500 17005KT 6SM -RA BR SCT018 OVC025
     FM182200 16005KT P6SM SCT025 OVC040
     FM190300 10007KT P6SM OVC040
      AMD LTD TO CLD AND VIS=



000
FTUS46 KOTX 180539
TAFGEG
TAF
KGEG 180539Z 1806/1906 04004KT P6SM -RA SCT030 OVC050
     FM180800 10004KT 6SM -RA BR OVC025
     FM181100 18004KT 3SM -RA BR SCT005 OVC009
     FM181800 17006KT P6SM BKN009 OVC020
     FM182000 15006KT P6SM SCT025 OVC040=



000
FTUS46 KOTX 180539
TAFEAT
TAF
KEAT 180539Z 1806/1906 VRB03KT 6SM BR FEW003 SCT018 OVC025
     FM190100 VRB02KT 4SM BR SCT008 BKN015 OVC025=



000
FTUS46 KOTX 180539
TAFPUW
TAF
KPUW 180539Z 1806/1906 10005KT P6SM -RA SCT020 OVC040
     FM181800 13007KT P6SM OVC050
     FM190300 12010KT P6SM FEW080 SCT120 BKN200=



000
FTUS46 KOTX 180539
TAFSFF
TAF
KSFF 180539Z 1806/1906 00000KT P6SM -RA OVC040
     FM180830 00000KT P6SM -RA BKN024 OVC035
     FM181100 20003KT 5SM -RA SCT010 OVC018
     FM181800 19003KT P6SM SCT020 OVC030
     FM182000 VRB03KT P6SM SCT030 OVC050=



000
FTUS46 KOTX 180113 AAA
TAFMWH
TAF AMD
KMWH 180113Z 1801/1824 33003KT 6SM BR VCSH OVC015
     FM181800 16003KT 6SM BR OVC025
     FM182200 12005KT P6SM SCT030 OVC200=



000
FTUS46 KOTX 180113 AAA
TAFMWH
TAF AMD
KMWH 180113Z 1801/1824 33003KT 6SM BR VCSH OVC015
     FM181800 16003KT 6SM BR OVC025
     FM182200 12005KT P6SM SCT030 OVC200=



000
FTUS46 KOTX 180109 AAA
TAFEAT
TAF AMD
KEAT 180109Z 1801/1824 VRB02KT 6SM BR VCSH SCT010 OVC020
     FM180500 VRB02KT 5SM BR OVC015
     FM181100 VRB02KT 3SM BR OVC006
     FM181900 VRB02KT 4SM BR SCT006 OVC010=



000
FTUS46 KOTX 180109 AAA
TAFEAT
TAF AMD
KEAT 180109Z 1801/1824 VRB02KT 6SM BR VCSH SCT010 OVC020
     FM180500 VRB02KT 5SM BR OVC015
     FM181100 VRB02KT 3SM BR OVC006
     FM181900 VRB02KT 4SM BR SCT006 OVC010=



000
FTUS46 KOTX 172347 CCA
TAFEAT
TAF COR
KEAT 172347Z 1800/1824 VRB02KT 5SM BR SCT005 BKN011 OVC020
      TEMPO 1800/1802 BKN005 OVC020
     FM180200 VRB02KT 2SM BR OVC005
     FM181700 VRB02KT 3SM BR OVC006
     FM181900 VRB02KT 4SM BR SCT006 OVC010=



000
FTUS46 KOTX 172339
TAFLWS
TAF
KLWS 172339Z 1800/1824 12003KT P6SM VCSH OVC070
     FM180600 14003KT P6SM VCSH OVC040
     FM181800 12003KT P6SM OVC060=



000
FTUS46 KOTX 172339
TAFGEG
TAF
KGEG 172339Z 1800/1824 08004KT P6SM -RA BKN035 OVC050
     FM180400 13004KT 6SM -RA BR SCT015 OVC025
     FM181100 19004KT 3SM -RA BR BKN004 OVC009
     FM181800 17006KT P6SM BKN009 OVC020
     FM182100 15006KT P6SM BKN020 OVC040=



000
FTUS46 KOTX 172339
TAFPUW
TAF
KPUW 172339Z 1800/1824 10009KT P6SM -RA SCT030 OVC050
     FM180800 12006KT 6SM -RA BR BKN015 OVC030
     FM181800 15007KT P6SM SCT030 OVC040=



000
FTUS46 KOTX 172339
TAFEAT
TAF
KEAT 172339Z 1800/1824 34004KT 5SM BR SCT005 BKN011 OVC021
     FM180300 VRB03KT 2SM BR OVC007=



000
FTUS46 KOTX 172339
TAFCOE
TAF
KCOE 172339Z 1800/1824 05004KT P6SM -RA BKN035 OVC050
     FM180600 12005KT P6SM -RA SCT018 OVC030
     FM180800 17004KT 6SM -RA BR BKN018 OVC025
     FM182100 16005KT P6SM VCSH SCT018 OVC025
      AMD LTD TO CLD AND VIS=



000
FTUS46 KOTX 172339
TAFSFF
TAF
KSFF 172339Z 1800/1824 VRB03KT P6SM -RA BKN040 OVC060
     FM180300 00000KT P6SM -RA OVC040
     FM180700 00000KT 6SM -RA BR BKN024 OVC035
     FM181100 20003KT 4SM -RA SCT007 OVC012
     FM181900 19003KT P6SM BKN020 OVC030=



000
FTUS46 KOTX 172339
TAFMWH
TAF
KMWH 172339Z 1800/1824 32004KT P6SM VCSH SCT010 BKN040 OVC100
     FM180300 32003KT P6SM SCT010 OVC040
     FM180500 33003KT 5SM BR SCT010 OVC025
     FM181800 16003KT 6SM BR OVC025
     FM182200 12005KT P6SM SCT030 OVC200=



000
FTUS46 KOTX 172339
TAFSFF
TAF
KSFF 172339Z 1800/1824 VRB03KT P6SM -RA BKN040 OVC060
     FM180300 00000KT P6SM -RA OVC040
     FM180700 00000KT 6SM -RA BR BKN024 OVC035
     FM181100 20003KT 4SM -RA SCT007 OVC012
     FM181900 19003KT P6SM BKN020 OVC030=



000
FTUS46 KOTX 172339
TAFGEG
TAF
KGEG 172339Z 1800/1824 08004KT P6SM -RA BKN035 OVC050
     FM180400 13004KT 6SM -RA BR SCT015 OVC025
     FM181100 19004KT 3SM -RA BR BKN004 OVC009
     FM181800 17006KT P6SM BKN009 OVC020
     FM182100 15006KT P6SM BKN020 OVC040=



000
FTUS46 KOTX 172339
TAFEAT
TAF
KEAT 172339Z 1800/1824 34004KT 5SM BR SCT005 BKN011 OVC021
     FM180300 VRB03KT 2SM BR OVC007=



000
FTUS46 KOTX 172339
TAFLWS
TAF
KLWS 172339Z 1800/1824 12003KT P6SM VCSH OVC070
     FM180600 14003KT P6SM VCSH OVC040
     FM181800 12003KT P6SM OVC060=



000
FTUS46 KOTX 172339
TAFMWH
TAF
KMWH 172339Z 1800/1824 32004KT P6SM VCSH SCT010 BKN040 OVC100
     FM180300 32003KT P6SM SCT010 OVC040
     FM180500 33003KT 5SM BR SCT010 OVC025
     FM181800 16003KT 6SM BR OVC025
     FM182200 12005KT P6SM SCT030 OVC200=



000
FTUS46 KOTX 172339
TAFPUW
TAF
KPUW 172339Z 1800/1824 10009KT P6SM -RA SCT030 OVC050
     FM180800 12006KT 6SM -RA BR BKN015 OVC030
     FM181800 15007KT P6SM SCT030 OVC040=



000
FTUS46 KOTX 172339
TAFCOE
TAF
KCOE 172339Z 1800/1824 05004KT P6SM -RA BKN035 OVC050
     FM180600 12005KT P6SM -RA SCT018 OVC030
     FM180800 17004KT 6SM -RA BR BKN018 OVC025
     FM182100 16005KT P6SM VCSH SCT018 OVC025
      AMD LTD TO CLD AND VIS=



000
FTUS46 KOTX 172212 AAB
TAFEAT
TAF AMD
KEAT 172212Z 1722/1818 34004KT 6SM -RA BR BKN005 BKN011 OVC021
     FM180100 VRB03KT 6SM BR SCT005 BKN011 OVC020
     FM180400 VRB03KT 2SM BR OVC007=



000
FTUS46 KOTX 172212 AAB
TAFEAT
TAF AMD
KEAT 172212Z 1722/1818 34004KT 6SM -RA BR BKN005 BKN011 OVC021
     FM180100 VRB03KT 6SM BR SCT005 BKN011 OVC020
     FM180400 VRB03KT 2SM BR OVC007=



000
FTUS46 KOTX 172210 AAA
TAFEAT
TAF AMD
KEAT 172210Z 1722/1818 34004KT 6SM -RA BR BKN011 OVC021
     FM180100 VRB03KT P6SM SCT011 OVC020
     FM180400 VRB03KT 2SM BR OVC007=



000
FTUS46 KOTX 172210 AAA
TAFEAT
TAF AMD
KEAT 172210Z 1722/1818 34004KT 6SM -RA BR BKN011 OVC021
     FM180100 VRB03KT P6SM SCT011 OVC020
     FM180400 VRB03KT 2SM BR OVC007=



000
FTUS46 KOTX 172208 AAA
TAFPUW
TAF AMD
KPUW 172208Z 1722/1818 10009KT P6SM -RA BKN050 BKN090 BKN200
     FM180100 11005KT P6SM VCSH OVC050
     FM180700 13006KT P6SM -RA BKN015 OVC040=



000
FTUS46 KOTX 172208 AAA
TAFPUW
TAF AMD
KPUW 172208Z 1722/1818 10009KT P6SM -RA BKN050 BKN090 BKN200
     FM180100 11005KT P6SM VCSH OVC050
     FM180700 13006KT P6SM -RA BKN015 OVC040=



000
FTUS46 KOTX 172207 AAA
TAFLWS
TAF AMD
KLWS 172207Z 1722/1818 08003KT P6SM -RA SCT070 BKN120 BKN200
     FM180000 12003KT P6SM OVC070
     FM180600 14003KT P6SM VCSH OVC040=



000
FTUS46 KOTX 172207 AAA
TAFLWS
TAF AMD
KLWS 172207Z 1722/1818 08003KT P6SM -RA SCT070 BKN120 BKN200
     FM180000 12003KT P6SM OVC070
     FM180600 14003KT P6SM VCSH OVC040=



000
FTUS46 KOTX 171725
TAFMWH
TAF
KMWH 171725Z 1718/1818 35006KT P6SM SCT018 OVC050
     FM172200 36004KT P6SM -RA BKN024 OVC030
     FM180300 32003KT 4SM BR OVC012=



000
FTUS46 KOTX 171725
TAFEAT
TAF
KEAT 171725Z 1718/1818 00000KT 3/4SM -RASN BR BKN003 OVC012
     FM171930 VRB03KT 6SM -RA BKN011 OVC021
     FM172200 VRB03KT P6SM SCT011 OVC020
     FM180400 VRB03KT 2SM BR OVC007=



000
FTUS46 KOTX 171725
TAFGEG
TAF
KGEG 171725Z 1718/1818 05007KT P6SM SCT050 BKN120 BKN200
     FM172200 08004KT P6SM VCSH BKN029 BKN200
     FM180300 08004KT P6SM -RA OVC028
     FM180700 16004KT 4SM -RA BR BKN015 OVC020=



000
FTUS46 KOTX 171725
TAFEAT
TAF
KEAT 171725Z 1718/1818 00000KT 3/4SM -RASN BR BKN003 OVC012
     FM171930 VRB03KT 6SM -RA BKN011 OVC021
     FM172200 VRB03KT P6SM SCT011 OVC020
     FM180400 VRB03KT 2SM BR OVC007=



000
FTUS46 KOTX 171725
TAFSFF
TAF
KSFF 171725Z 1718/1818 00000KT P6SM SCT050 BKN120 BKN200
     FM172200 04002KT P6SM VCSH BKN045 BKN200
     FM180300 VRB02KT P6SM -RA OVC040
     FM180700 20003KT 6SM -RA BR BKN024 OVC035=



000
FTUS46 KOTX 171725
TAFLWS
TAF
KLWS 171725Z 1718/1818 08003KT P6SM SCT070 BKN120 BKN200
     FM180200 12003KT P6SM OVC070
     FM180600 14003KT P6SM VCSH OVC040=



000
FTUS46 KOTX 171725
TAFLWS
TAF
KLWS 171725Z 1718/1818 08003KT P6SM SCT070 BKN120 BKN200
     FM180200 12003KT P6SM OVC070
     FM180600 14003KT P6SM VCSH OVC040=



000
FTUS46 KOTX 171725
TAFSFF
TAF
KSFF 171725Z 1718/1818 00000KT P6SM SCT050 BKN120 BKN200
     FM172200 04002KT P6SM VCSH BKN045 BKN200
     FM180300 VRB02KT P6SM -RA OVC040
     FM180700 20003KT 6SM -RA BR BKN024 OVC035=



000
FTUS46 KOTX 171725
TAFCOE
TAF
KCOE 171725Z 1718/1818 05007KT P6SM SCT050 BKN120 BKN200
     FM172300 05004KT P6SM VCSH BKN045 BKN200
     FM180400 09006KT P6SM -RA OVC035
     FM180700 12006KT 6SM -RA BR BKN018 OVC035
      AMD LTD TO CLD AND VIS=



000
FTUS46 KOTX 171725
TAFCOE
TAF
KCOE 171725Z 1718/1818 05007KT P6SM SCT050 BKN120 BKN200
     FM172300 05004KT P6SM VCSH BKN045 BKN200
     FM180400 09006KT P6SM -RA OVC035
     FM180700 12006KT 6SM -RA BR BKN018 OVC035
      AMD LTD TO CLD AND VIS=



000
FTUS46 KOTX 171725
TAFPUW
TAF
KPUW 171725Z 1718/1818 10014KT P6SM SCT040 BKN090 BKN200
     FM180200 11005KT P6SM VCSH OVC050
     FM180700 13006KT P6SM -RA BKN015 OVC040=



000
FTUS46 KOTX 171725
TAFPUW
TAF
KPUW 171725Z 1718/1818 10014KT P6SM SCT040 BKN090 BKN200
     FM180200 11005KT P6SM VCSH OVC050
     FM180700 13006KT P6SM -RA BKN015 OVC040=



000
FTUS46 KOTX 171725
TAFMWH
TAF
KMWH 171725Z 1718/1818 35006KT P6SM SCT018 OVC050
     FM172200 36004KT P6SM -RA BKN024 OVC030
     FM180300 32003KT 4SM BR OVC012=



000
FTUS46 KOTX 171725
TAFGEG
TAF
KGEG 171725Z 1718/1818 05007KT P6SM SCT050 BKN120 BKN200
     FM172200 08004KT P6SM VCSH BKN029 BKN200
     FM180300 08004KT P6SM -RA OVC028
     FM180700 16004KT 4SM -RA BR BKN015 OVC020=



000
FTUS46 KOTX 171641 AAC
TAFEAT
TAF AMD
KEAT 171641Z 1717/1812 00000KT 1SM -RASN BR SCT006 BKN012 OVC021
     FM171900 VRB03KT 6SM -RA BKN011 OVC021
     FM180000 VRB03KT P6SM OVC020
     FM180400 VRB03KT 2SM BR OVC007=



000
FTUS46 KOTX 171641 AAC
TAFEAT
TAF AMD
KEAT 171641Z 1717/1812 00000KT 1SM -RASN BR SCT006 BKN012 OVC021
     FM171900 VRB03KT 6SM -RA BKN011 OVC021
     FM180000 VRB03KT P6SM OVC020
     FM180400 VRB03KT 2SM BR OVC007=



000
FTUS46 KOTX 171413 AAB
TAFEAT
TAF AMD
KEAT 171413Z 1714/1812 00000KT 3SM -RASN BR SCT006 OVC021
      TEMPO 1714/1717 5SM -RA BR BKN005 OVC019
     FM171800 VRB03KT 6SM -RA BKN011 OVC021
     FM180000 VRB03KT P6SM OVC020
     FM180400 VRB03KT 2SM BR OVC007=



000
FTUS46 KOTX 171413 AAB
TAFEAT
TAF AMD
KEAT 171413Z 1714/1812 00000KT 3SM -RASN BR SCT006 OVC021
      TEMPO 1714/1717 5SM -RA BR BKN005 OVC019
     FM171800 VRB03KT 6SM -RA BKN011 OVC021
     FM180000 VRB03KT P6SM OVC020
     FM180400 VRB03KT 2SM BR OVC007=



000
FTUS46 KOTX 171345 AAA
TAFEAT
TAF AMD
KEAT 171345Z 1714/1812 00000KT 5SM -RA BR BKN006 OVC018
     FM171800 VRB03KT 6SM -RA BKN011 OVC021
     FM180000 VRB03KT P6SM OVC020
     FM180400 VRB03KT 2SM BR OVC007=



000
FTUS46 KOTX 171345 AAA
TAFEAT
TAF AMD
KEAT 171345Z 1714/1812 00000KT 5SM -RA BR BKN006 OVC018
     FM171800 VRB03KT 6SM -RA BKN011 OVC021
     FM180000 VRB03KT P6SM OVC020
     FM180400 VRB03KT 2SM BR OVC007=



000
FTUS46 KOTX 171135
TAFLWS
TAF
KLWS 171135Z 1712/1812 09003KT P6SM FEW080 BKN150
     FM171800 08003KT P6SM SCT070 OVC100
     FM180200 12003KT P6SM OVC070
     FM180600 14003KT P6SM VCSH OVC040=



000
FTUS46 KOTX 171135
TAFEAT
TAF
KEAT 171135Z 1712/1812 00000KT 5SM BR SCT006 OVC018
      TEMPO 1712/1715 3SM BR BKN006 OVC018
     FM171800 VRB03KT 6SM -RA BKN009 OVC015
     FM180000 VRB03KT P6SM OVC020
     FM180400 VRB03KT 2SM BR OVC007=



000
FTUS46 KOTX 171135
TAFGEG
TAF
KGEG 171135Z 1712/1812 05007KT P6SM BKN035 OVC045
     FM180300 08004KT P6SM -RA OVC028
     FM180700 16004KT 4SM -RA BR BKN015 OVC020=



000
FTUS46 KOTX 171135
TAFMWH
TAF
KMWH 171135Z 1712/1812 35006KT P6SM SCT018 OVC050
     FM172200 36004KT P6SM -RA BKN024 OVC030
     FM180300 32003KT 4SM BR OVC012=



000
FTUS46 KOTX 171135
TAFPUW
TAF
KPUW 171135Z 1712/1812 10010KT P6SM OVC120
     FM171800 12008KT P6SM SCT040 BKN070
     FM180200 11005KT P6SM VCSH OVC050
     FM180700 13006KT P6SM -RA BKN015 OVC040=



000
FTUS46 KOTX 171135
TAFGEG
TAF
KGEG 171135Z 1712/1812 05007KT P6SM BKN035 OVC045
     FM180300 08004KT P6SM -RA OVC028
     FM180700 16004KT 4SM -RA BR BKN015 OVC020=



000
FTUS46 KOTX 171135
TAFSFF
TAF
KSFF 171135Z 1712/1812 00000KT P6SM OVC040
     FM180300 VRB02KT P6SM -RA OVC040
     FM180700 20003KT 6SM -RA BR BKN024 OVC035=



000
FTUS46 KOTX 171135
TAFCOE
TAF
KCOE 171135Z 1712/1812 05007KT P6SM BKN035 OVC045
     FM180400 09006KT P6SM -RA OVC035
     FM180700 12006KT 6SM -RA BR BKN018 OVC035
      AMD LTD TO CLD AND VIS=



000
FTUS46 KOTX 171135
TAFCOE
TAF
KCOE 171135Z 1712/1812 05007KT P6SM BKN035 OVC045
     FM180400 09006KT P6SM -RA OVC035
     FM180700 12006KT 6SM -RA BR BKN018 OVC035
      AMD LTD TO CLD AND VIS=



000
FTUS46 KOTX 171135
TAFPUW
TAF
KPUW 171135Z 1712/1812 10010KT P6SM OVC120
     FM171800 12008KT P6SM SCT040 BKN070
     FM180200 11005KT P6SM VCSH OVC050
     FM180700 13006KT P6SM -RA BKN015 OVC040=



000
FTUS46 KOTX 171135
TAFEAT
TAF
KEAT 171135Z 1712/1812 00000KT 5SM BR SCT006 OVC018
      TEMPO 1712/1715 3SM BR BKN006 OVC018
     FM171800 VRB03KT 6SM -RA BKN009 OVC015
     FM180000 VRB03KT P6SM OVC020
     FM180400 VRB03KT 2SM BR OVC007=



000
FTUS46 KOTX 171135
TAFLWS
TAF
KLWS 171135Z 1712/1812 09003KT P6SM FEW080 BKN150
     FM171800 08003KT P6SM SCT070 OVC100
     FM180200 12003KT P6SM OVC070
     FM180600 14003KT P6SM VCSH OVC040=



000
FTUS46 KOTX 171135
TAFMWH
TAF
KMWH 171135Z 1712/1812 35006KT P6SM SCT018 OVC050
     FM172200 36004KT P6SM -RA BKN024 OVC030
     FM180300 32003KT 4SM BR OVC012=



000
FTUS46 KOTX 171135
TAFSFF
TAF
KSFF 171135Z 1712/1812 00000KT P6SM OVC040
     FM180300 VRB02KT P6SM -RA OVC040
     FM180700 20003KT 6SM -RA BR BKN024 OVC035=



000
FTUS46 KOTX 170701 AAA
TAFMWH
TAF AMD
KMWH 170701Z 1707/1806 36004KT P6SM OVC009
     FM171500 36005KT P6SM VCSH SCT025 OVC040
     FM171900 36004KT P6SM -RA OVC030
     FM180100 35003KT P6SM OVC030=



000
FTUS46 KOTX 170539
TAFPUW
TAF
KPUW 170539Z 1706/1806 09005KT P6SM OVC050
     FM170900 09007KT P6SM FEW060
     FM171400 10009KT P6SM SCT080 BKN150
     FM171800 12008KT P6SM SCT040 BKN070 OVC100
     FM180000 13007KT P6SM VCSH BKN050 OVC070=



000
FTUS46 KOTX 170539
TAFGEG
TAF
KGEG 170539Z 1706/1806 04004KT 6SM BR VCSH SCT006 OVC030
     FM170800 05004KT P6SM FEW005 SCT030
     FM171500 06004KT P6SM SCT050 BKN070 OVC100
     FM172300 08004KT P6SM -RA OVC040=



000
FTUS46 KOTX 170539
TAFLWS
TAF
KLWS 170539Z 1706/1806 09003KT P6SM OVC080
     FM170900 10004KT P6SM FEW080
     FM171400 10004KT P6SM SCT100 BKN150
     FM171800 08003KT P6SM SCT050 BKN070 OVC100=



000
FTUS46 KOTX 170539
TAFCOE
TAF
KCOE 170539Z 1706/1806 06007KT P6SM VCSH OVC050
     FM171000 06007KT P6SM BKN050
     FM171700 05007KT P6SM SCT040 BKN070 OVC100
     FM180100 09006KT P6SM -RA OVC040
      AMD LTD TO CLD AND VIS=



000
FTUS46 KOTX 170539
TAFMWH
TAF
KMWH 170539Z 1706/1806 36004KT P6SM OVC010
     FM171500 36005KT P6SM VCSH SCT025 OVC040
     FM171900 36004KT P6SM -RA OVC030
     FM180100 35003KT P6SM OVC030=



000
FTUS46 KOTX 170539
TAFSFF
TAF
KSFF 170539Z 1706/1806 00000KT P6SM VCSH OVC040
     FM170900 00000KT P6SM SCT040
     FM171100 00000KT P6SM VCFG SCT004 SCT070
     FM171700 08002KT P6SM SCT040 BKN070 OVC100
     FM180000 00000KT P6SM -RA OVC040=



000
FTUS46 KOTX 170539
TAFEAT
TAF
KEAT 170539Z 1706/1806 00000KT P6SM SCT015 OVC020
     FM171600 VRB03KT 6SM -RA OVC010
     FM172300 VRB03KT P6SM OVC020=



000
FTUS46 KOTX 170539
TAFPUW
TAF
KPUW 170539Z 1706/1806 09005KT P6SM OVC050
     FM170900 09007KT P6SM FEW060
     FM171400 10009KT P6SM SCT080 BKN150
     FM171800 12008KT P6SM SCT040 BKN070 OVC100
     FM180000 13007KT P6SM VCSH BKN050 OVC070=



000
FTUS46 KOTX 170539
TAFSFF
TAF
KSFF 170539Z 1706/1806 00000KT P6SM VCSH OVC040
     FM170900 00000KT P6SM SCT040
     FM171100 00000KT P6SM VCFG SCT004 SCT070
     FM171700 08002KT P6SM SCT040 BKN070 OVC100
     FM180000 00000KT P6SM -RA OVC040=



000
FTUS46 KOTX 170539
TAFMWH
TAF
KMWH 170539Z 1706/1806 36004KT P6SM OVC010
     FM171500 36005KT P6SM VCSH SCT025 OVC040
     FM171900 36004KT P6SM -RA OVC030
     FM180100 35003KT P6SM OVC030=



000
FTUS46 KOTX 170539
TAFCOE
TAF
KCOE 170539Z 1706/1806 06007KT P6SM VCSH OVC050
     FM171000 06007KT P6SM BKN050
     FM171700 05007KT P6SM SCT040 BKN070 OVC100
     FM180100 09006KT P6SM -RA OVC040
      AMD LTD TO CLD AND VIS=



000
FTUS46 KOTX 170539
TAFLWS
TAF
KLWS 170539Z 1706/1806 09003KT P6SM OVC080
     FM170900 10004KT P6SM FEW080
     FM171400 10004KT P6SM SCT100 BKN150
     FM171800 08003KT P6SM SCT050 BKN070 OVC100=



000
FTUS46 KOTX 170539
TAFEAT
TAF
KEAT 170539Z 1706/1806 00000KT P6SM SCT015 OVC020
     FM171600 VRB03KT 6SM -RA OVC010
     FM172300 VRB03KT P6SM OVC020=



000
FTUS46 KOTX 170539
TAFGEG
TAF
KGEG 170539Z 1706/1806 04004KT 6SM BR VCSH SCT006 OVC030
     FM170800 05004KT P6SM FEW005 SCT030
     FM171500 06004KT P6SM SCT050 BKN070 OVC100
     FM172300 08004KT P6SM -RA OVC040=



000
FTUS46 KOTX 170353 AAB
TAFEAT
TAF AMD
KEAT 170353Z 1704/1724 00000KT P6SM SCT015 OVC025
     FM170900 00000KT P6SM OVC008
     FM171600 00000KT 6SM -RA OVC010=



000
FTUS46 KOTX 170353 AAB
TAFEAT
TAF AMD
KEAT 170353Z 1704/1724 00000KT P6SM SCT015 OVC025
     FM170900 00000KT P6SM OVC008
     FM171600 00000KT 6SM -RA OVC010=



000
FTUS46 KOTX 170353 AAB
TAFEAT
TAF AMD
KEAT 170353Z 1704/1724 00000KT P6SM SCT015 OVC025
     FM170900 00000KT P6SM OVC008
     FM171600 00000KT 6SM -RA OVC010=



000
FTUS46 KOTX 170353 AAB
TAFEAT
TAF AMD
KEAT 170353Z 1704/1724 00000KT P6SM SCT015 OVC025
     FM170900 00000KT P6SM OVC008
     FM171600 00000KT 6SM -RA OVC010=



000
FTUS46 KOTX 170311 AAA
TAFEAT
TAF AMD
KEAT 170311Z 1703/1724 00000KT P6SM SCT015 OVC025
     FM170900 00000KT P6SM OVC008
     FM171600 00000KT 6SM -SN OVC010=



000
FTUS46 KOTX 170311 AAA
TAFEAT
TAF AMD
KEAT 170311Z 1703/1724 00000KT P6SM SCT015 OVC025
     FM170900 00000KT P6SM OVC008
     FM171600 00000KT 6SM -SN OVC010=



000
FTUS46 KOTX 170309 AAB
TAFCOE
TAF AMD
KCOE 170309Z 1703/1724 04007KT P6SM VCSH OVC040
     FM170500 05007KT P6SM OVC035
     FM171500 04007KT P6SM SCT040 BKN070 OVC100
      AMD LTD TO CLD AND VIS=



000
FTUS46 KOTX 170309 AAB
TAFCOE
TAF AMD
KCOE 170309Z 1703/1724 04007KT P6SM VCSH OVC040
     FM170500 05007KT P6SM OVC035
     FM171500 04007KT P6SM SCT040 BKN070 OVC100
      AMD LTD TO CLD AND VIS=



000
FTUS46 KOTX 170302 AAB
TAFSFF
TAF AMD
KSFF 170302Z 1703/1724 00000KT P6SM SCT006 BKN012 OVC025
     FM171100 00000KT P6SM VCFG SCT004 BKN050
     FM171700 VRB02KT P6SM SCT040 BKN070 OVC100=



000
FTUS46 KOTX 170302 AAB
TAFSFF
TAF AMD
KSFF 170302Z 1703/1724 00000KT P6SM SCT006 BKN012 OVC025
     FM171100 00000KT P6SM VCFG SCT004 BKN050
     FM171700 VRB02KT P6SM SCT040 BKN070 OVC100=



000
FTUS46 KOTX 170247 AAA
TAFGEG
TAF AMD
KGEG 170247Z 1703/1724 05006KT 1SM BR OVC002
     FM171200 06005KT 6SM BR VCFG SCT002 BKN040
     FM171500 05005KT P6SM SCT040 BKN070 OVC100=



000
FTUS46 KOTX 170247 AAA
TAFGEG
TAF AMD
KGEG 170247Z 1703/1724 05006KT 1SM BR OVC002
     FM171200 06005KT 6SM BR VCFG SCT002 BKN040
     FM171500 05005KT P6SM SCT040 BKN070 OVC100=



000
FTUS46 KOTX 170200 AAA
TAFMWH
TAF AMD
KMWH 170200Z 1702/1724 02006KT P6SM OVC010
     FM170500 36004KT P6SM OVC009
     FM171800 36005KT P6SM -RA OVC009=



000
FTUS46 KOTX 170200 AAA
TAFMWH
TAF AMD
KMWH 170200Z 1702/1724 02006KT P6SM OVC010
     FM170500 36004KT P6SM OVC009
     FM171800 36005KT P6SM -RA OVC009=



000
FTUS46 KOTX 170030 AAA
TAFCOE
TAF AMD
KCOE 170030Z 1701/1724 03010KT 5SM -SN OVC030
     FM170600 05007KT P6SM OVC040
     FM171500 04007KT P6SM SCT040 BKN070 OVC100
      AMD LTD TO CLD AND VIS=



000
FTUS46 KOTX 170030 AAA
TAFSFF
TAF AMD
KSFF 170030Z 1701/1724 07003KT 4SM -SN OVC030
     FM170600 00000KT P6SM SCT035 OVC050
     FM170900 00000KT P6SM VCFG SCT004 BKN050
     FM171700 VRB02KT P6SM SCT040 BKN070 OVC100=



000
FTUS46 KOTX 170030 AAA
TAFCOE
TAF AMD
KCOE 170030Z 1701/1724 03010KT 5SM -SN OVC030
     FM170600 05007KT P6SM OVC040
     FM171500 04007KT P6SM SCT040 BKN070 OVC100
      AMD LTD TO CLD AND VIS=



000
FTUS46 KOTX 162339
TAFMWH
TAF
KMWH 162339Z 1700/1724 02006KT P6SM VCSH OVC009
     FM170400 36004KT P6SM OVC009
     FM171800 36005KT P6SM -RA OVC009=



000
FTUS46 KOTX 162339
TAFSFF
TAF
KSFF 162339Z 1700/1724 07003KT 6SM -RASN SCT030 OVC040
     FM170600 00000KT P6SM SCT035 OVC050
     FM170900 00000KT P6SM VCFG SCT004 BKN050
     FM171700 VRB02KT P6SM SCT040 BKN070 OVC100=



000
FTUS46 KOTX 162339
TAFEAT
TAF
KEAT 162339Z 1700/1724 00000KT P6SM -RA SCT005 BKN025 OVC040
     FM170100 00000KT P6SM BKN015 OVC025
     FM170800 00000KT P6SM OVC008
     FM171600 00000KT 6SM -SN OVC010=



000
FTUS46 KOTX 162339
TAFPUW
TAF
KPUW 162339Z 1700/1724 10005KT P6SM OVC050
     FM170900 09007KT P6SM FEW060 SCT200
     FM171400 10007KT P6SM SCT080 BKN100 OVC150
     FM172200 13005KT P6SM BKN050 OVC070=



000
FTUS46 KOTX 162339
TAFCOE
TAF
KCOE 162339Z 1700/1724 03010KT P6SM -SN OVC035
     FM170700 05007KT P6SM OVC040
     FM171500 04007KT P6SM SCT040 BKN070 OVC100
      AMD LTD TO CLD AND VIS=



000
FTUS46 KOTX 162339
TAFLWS
TAF
KLWS 162339Z 1700/1724 09005KT P6SM OVC080
     FM170900 10004KT P6SM FEW080 SCT200
     FM171400 10004KT P6SM SCT100 BKN140 OVC170
     FM172200 10003KT P6SM BKN070 OVC100=



000
FTUS46 KOTX 162339
TAFGEG
TAF
KGEG 162339Z 1700/1724 05006KT 2SM -SN OVC030
     FM170600 06005KT P6SM SCT025 BKN040
     FM171500 05005KT P6SM SCT040 BKN070 OVC100=



000
FTUS46 KOTX 162339
TAFEAT
TAF
KEAT 162339Z 1700/1724 00000KT P6SM -RA SCT005 BKN025 OVC040
     FM170100 00000KT P6SM BKN015 OVC025
     FM170800 00000KT P6SM OVC008
     FM171600 00000KT 6SM -SN OVC010=



000
FTUS46 KOTX 162339
TAFCOE
TAF
KCOE 162339Z 1700/1724 03010KT P6SM -SN OVC035
     FM170700 05007KT P6SM OVC040
     FM171500 04007KT P6SM SCT040 BKN070 OVC100
      AMD LTD TO CLD AND VIS=



000
FTUS46 KOTX 162339
TAFSFF
TAF
KSFF 162339Z 1700/1724 07003KT 6SM -RASN SCT030 OVC040
     FM170600 00000KT P6SM SCT035 OVC050
     FM170900 00000KT P6SM VCFG SCT004 BKN050
     FM171700 VRB02KT P6SM SCT040 BKN070 OVC100=



000
FTUS46 KOTX 162339
TAFPUW
TAF
KPUW 162339Z 1700/1724 10005KT P6SM OVC050
     FM170900 09007KT P6SM FEW060 SCT200
     FM171400 10007KT P6SM SCT080 BKN100 OVC150
     FM172200 13005KT P6SM BKN050 OVC070=



000
FTUS46 KOTX 162339
TAFMWH
TAF
KMWH 162339Z 1700/1724 02006KT P6SM VCSH OVC009
     FM170400 36004KT P6SM OVC009
     FM171800 36005KT P6SM -RA OVC009=



000
FTUS46 KOTX 162339
TAFLWS
TAF
KLWS 162339Z 1700/1724 09005KT P6SM OVC080
     FM170900 10004KT P6SM FEW080 SCT200
     FM171400 10004KT P6SM SCT100 BKN140 OVC170
     FM172200 10003KT P6SM BKN070 OVC100=



000
FTUS46 KOTX 162339
TAFGEG
TAF
KGEG 162339Z 1700/1724 05006KT 2SM -SN OVC030
     FM170600 06005KT P6SM SCT025 BKN040
     FM171500 05005KT P6SM SCT040 BKN070 OVC100=



000
FTUS46 KOTX 162109 AAC
TAFEAT
TAF AMD
KEAT 162109Z 1621/1718 02002KT P6SM SCT005 BKN025
      TEMPO 1621/1624 -RASN BKN005
     FM170100 VRB02KT P6SM OVC025
     FM170800 00000KT P6SM OVC008
     FM171600 00000KT 6SM -SN OVC010=



000
FTUS46 KOTX 162109 AAC
TAFEAT
TAF AMD
KEAT 162109Z 1621/1718 02002KT P6SM SCT005 BKN025
      TEMPO 1621/1624 -RASN BKN005
     FM170100 VRB02KT P6SM OVC025
     FM170800 00000KT P6SM OVC008
     FM171600 00000KT 6SM -SN OVC010=



000
FTUS46 KOTX 162109 AAC
TAFEAT
TAF AMD
KEAT 162109Z 1621/1718 02002KT P6SM SCT005 BKN025
      TEMPO 1621/1624 -RASN BKN005
     FM170100 VRB02KT P6SM OVC025
     FM170800 00000KT P6SM OVC008
     FM171600 00000KT 6SM -SN OVC010=



000
FTUS46 KOTX 162109 AAC
TAFEAT
TAF AMD
KEAT 162109Z 1621/1718 02002KT P6SM SCT005 BKN025
      TEMPO 1621/1624 -RASN BKN005
     FM170100 VRB02KT P6SM OVC025
     FM170800 00000KT P6SM OVC008
     FM171600 00000KT 6SM -SN OVC010=



000
FTUS46 KOTX 161921 AAA
TAFPUW
TAF AMD
KPUW 161921Z 1619/1718 11008KT P6SM OVC050
     FM162100 09007KT P6SM -RA OVC050
     FM170500 09007KT P6SM OVC025=



000
FTUS46 KOTX 161920 AAA
TAFGEG
TAF AMD
KGEG 161920Z 1619/1718 05007KT P6SM VCSH BKN040 OVC060
     FM170000 05007KT P6SM -RA OVC040
     FM170600 06005KT P6SM SCT025 OVC040
     FM170800 05004KT 6SM BR OVC006=



000
FTUS46 KOTX 161849 AAB
TAFEAT
TAF AMD
KEAT 161849Z 1619/1718 02002KT P6SM -RASN SCT005 BKN025 OVC040
      TEMPO 1619/1621 BKN005
     FM170100 VRB02KT P6SM OVC025
     FM170800 00000KT P6SM OVC008
     FM171600 00000KT 6SM -SN OVC010=



000
FTUS46 KOTX 161849 AAB
TAFEAT
TAF AMD
KEAT 161849Z 1619/1718 02002KT P6SM -RASN SCT005 BKN025 OVC040
      TEMPO 1619/1621 BKN005
     FM170100 VRB02KT P6SM OVC025
     FM170800 00000KT P6SM OVC008
     FM171600 00000KT 6SM -SN OVC010=



000
FTUS46 KOTX 161848 AAA
TAFEAT
TAF AMD
KEAT 161848Z 1619/1718 02002KT P6SM -RASN SCT005 BKN025 OVC040
      TEMPO 1619/1621 -RASN BKN005 OVC025
     FM170100 VRB02KT P6SM OVC025
     FM170800 00000KT P6SM OVC008
     FM171600 00000KT 6SM -SN OVC010=



000
FTUS46 KOTX 161848 AAA
TAFEAT
TAF AMD
KEAT 161848Z 1619/1718 02002KT P6SM -RASN SCT005 BKN025 OVC040
      TEMPO 1619/1621 -RASN BKN005 OVC025
     FM170100 VRB02KT P6SM OVC025
     FM170800 00000KT P6SM OVC008
     FM171600 00000KT 6SM -SN OVC010=



000
FTUS46 KOTX 161724
TAFCOE
TAF
KCOE 161724Z 1618/1718 03010KT P6SM VCSH BKN045 OVC060
     FM170600 05005KT P6SM BKN060
      AMD LTD TO CLD AND VIS=



000
FTUS46 KOTX 161724
TAFEAT
TAF
KEAT 161724Z 1618/1718 02002KT P6SM -RASN SCT005 BKN025 OVC040
     FM170100 VRB02KT P6SM OVC025
     FM170800 00000KT P6SM OVC008
     FM171600 00000KT 6SM -SN OVC010=



000
FTUS46 KOTX 161724
TAFMWH
TAF
KMWH 161724Z 1618/1718 34006KT 6SM -RA BR OVC029
     FM170400 36004KT P6SM SCT015 OVC020
     FM170900 02005KT P6SM OVC010=



000
FTUS46 KOTX 161724
TAFSFF
TAF
KSFF 161724Z 1618/1718 VRB03KT P6SM VCSH BKN045 OVC060
     FM170300 00000KT P6SM SCT035 OVC050
     FM170900 VRB03KT P6SM OVC009=



000
FTUS46 KOTX 161724
TAFPUW
TAF
KPUW 161724Z 1618/1718 11008KT P6SM OVC050
     FM170900 09007KT P6SM OVC025=



000
FTUS46 KOTX 161724
TAFGEG
TAF
KGEG 161724Z 1618/1718 05007KT P6SM VCSH BKN040 OVC060
     FM170300 06005KT P6SM SCT025 OVC040
     FM170800 05004KT 6SM BR OVC006=



000
FTUS46 KOTX 161724
TAFLWS
TAF
KLWS 161724Z 1618/1718 09005KT P6SM BKN060 OVC100
     FM170900 10003KT P6SM OVC050=



000
FTUS46 KOTX 161724
TAFPUW
TAF
KPUW 161724Z 1618/1718 11008KT P6SM OVC050
     FM170900 09007KT P6SM OVC025=



000
FTUS46 KOTX 161724
TAFLWS
TAF
KLWS 161724Z 1618/1718 09005KT P6SM BKN060 OVC100
     FM170900 10003KT P6SM OVC050=



000
FTUS46 KOTX 161724
TAFGEG
TAF
KGEG 161724Z 1618/1718 05007KT P6SM VCSH BKN040 OVC060
     FM170300 06005KT P6SM SCT025 OVC040
     FM170800 05004KT 6SM BR OVC006=



000
FTUS46 KOTX 161724
TAFSFF
TAF
KSFF 161724Z 1618/1718 VRB03KT P6SM VCSH BKN045 OVC060
     FM170300 00000KT P6SM SCT035 OVC050
     FM170900 VRB03KT P6SM OVC009=



000
FTUS46 KOTX 161724
TAFEAT
TAF
KEAT 161724Z 1618/1718 02002KT P6SM -RASN SCT005 BKN025 OVC040
     FM170100 VRB02KT P6SM OVC025
     FM170800 00000KT P6SM OVC008
     FM171600 00000KT 6SM -SN OVC010=



000
FTUS46 KOTX 161724
TAFCOE
TAF
KCOE 161724Z 1618/1718 03010KT P6SM VCSH BKN045 OVC060
     FM170600 05005KT P6SM BKN060
      AMD LTD TO CLD AND VIS=



000
FTUS46 KOTX 161724
TAFMWH
TAF
KMWH 161724Z 1618/1718 34006KT 6SM -RA BR OVC029
     FM170400 36004KT P6SM SCT015 OVC020
     FM170900 02005KT P6SM OVC010=



000
FTUS46 KOTX 161549 AAA
TAFEAT
TAF AMD
KEAT 161549Z 1616/1712 VRB03KT 3SM -SN BR BKN029 OVC040
     FM161700 02002KT P6SM -RA BKN025 OVC040
     FM161900 VRB03KT 6SM BR VCSH SCT008 OVC015
     FM170100 VRB02KT P6SM OVC025
     FM170800 00000KT P6SM OVC008=



000
FTUS46 KOTX 161549 AAA
TAFEAT
TAF AMD
KEAT 161549Z 1616/1712 VRB03KT 3SM -SN BR BKN029 OVC040
     FM161700 02002KT P6SM -RA BKN025 OVC040
     FM161900 VRB03KT 6SM BR VCSH SCT008 OVC015
     FM170100 VRB02KT P6SM OVC025
     FM170800 00000KT P6SM OVC008=



000
FTUS46 KOTX 161133
TAFEAT
TAF
KEAT 161133Z 1612/1712 VRB03KT P6SM -SN BKN040 OVC050
     FM161500 02002KT P6SM -RA BKN025 OVC040
     FM161900 VRB03KT 6SM BR VCSH SCT008 OVC015
     FM170100 VRB02KT P6SM OVC025
     FM170800 00000KT P6SM OVC008=



000
FTUS46 KOTX 161133
TAFMWH
TAF
KMWH 161133Z 1612/1712 03007KT P6SM -SN OVC050
     FM161500 02006KT 6SM -RA BR OVC025
     FM161900 01005KT P6SM VCSH BKN025 OVC035
     FM170400 36004KT P6SM SCT015 OVC020
     FM170900 02005KT P6SM OVC010=



000
FTUS46 KOTX 161133
TAFLWS
TAF
KLWS 161133Z 1612/1712 00000KT P6SM VCSH SCT025 BKN035 OVC050
     FM162000 09003KT P6SM BKN060 OVC100
     FM170900 10003KT P6SM OVC050=



000
FTUS46 KOTX 161133
TAFEAT
TAF
KEAT 161133Z 1612/1712 VRB03KT P6SM -SN BKN040 OVC050
     FM161500 02002KT P6SM -RA BKN025 OVC040
     FM161900 VRB03KT 6SM BR VCSH SCT008 OVC015
     FM170100 VRB02KT P6SM OVC025
     FM170800 00000KT P6SM OVC008=



000
FTUS46 KOTX 161133
TAFGEG
TAF
KGEG 161133Z 1612/1712 05010KT P6SM VCSH SCT040 OVC060
     FM162000 08007KT P6SM VCSH BKN040 OVC060
     FM170300 06005KT P6SM SCT025 OVC040
     FM170800 05004KT 6SM BR OVC006=



000
FTUS46 KOTX 161133
TAFPUW
TAF
KPUW 161133Z 1612/1712 09009KT P6SM VCSH BKN060 OVC070
     FM161800 11008KT P6SM OVC050
     FM170900 09007KT P6SM OVC025=



000
FTUS46 KOTX 161133
TAFPUW
TAF
KPUW 161133Z 1612/1712 09009KT P6SM VCSH BKN060 OVC070
     FM161800 11008KT P6SM OVC050
     FM170900 09007KT P6SM OVC025=



000
FTUS46 KOTX 161133
TAFLWS
TAF
KLWS 161133Z 1612/1712 00000KT P6SM VCSH SCT025 BKN035 OVC050
     FM162000 09003KT P6SM BKN060 OVC100
     FM170900 10003KT P6SM OVC050=



000
FTUS46 KOTX 161133
TAFCOE
TAF
KCOE 161133Z 1612/1712 02012KT P6SM VCSH SCT050 OVC060
     FM161900 03010KT P6SM VCSH BKN035 OVC060
     FM170600 05005KT P6SM BKN060
      AMD LTD TO CLD AND VIS=



000
FTUS46 KOTX 161133
TAFSFF
TAF
KSFF 161133Z 1612/1712 VRB02KT P6SM VCSH SCT045 OVC070
     FM162000 VRB03KT P6SM VCSH BKN045 OVC060
     FM170300 00000KT P6SM SCT035 OVC050
     FM170900 VRB03KT P6SM OVC009=



000
FTUS46 KOTX 161133
TAFCOE
TAF
KCOE 161133Z 1612/1712 02012KT P6SM VCSH SCT050 OVC060
     FM161900 03010KT P6SM VCSH BKN035 OVC060
     FM170600 05005KT P6SM BKN060
      AMD LTD TO CLD AND VIS=



000
FTUS46 KOTX 161133
TAFGEG
TAF
KGEG 161133Z 1612/1712 05010KT P6SM VCSH SCT040 OVC060
     FM162000 08007KT P6SM VCSH BKN040 OVC060
     FM170300 06005KT P6SM SCT025 OVC040
     FM170800 05004KT 6SM BR OVC006=



000
FTUS46 KOTX 161133
TAFMWH
TAF
KMWH 161133Z 1612/1712 03007KT P6SM -SN OVC050
     FM161500 02006KT 6SM -RA BR OVC025
     FM161900 01005KT P6SM VCSH BKN025 OVC035
     FM170400 36004KT P6SM SCT015 OVC020
     FM170900 02005KT P6SM OVC010=



000
FTUS46 KOTX 161133
TAFSFF
TAF
KSFF 161133Z 1612/1712 VRB02KT P6SM VCSH SCT045 OVC070
     FM162000 VRB03KT P6SM VCSH BKN045 OVC060
     FM170300 00000KT P6SM SCT035 OVC050
     FM170900 VRB03KT P6SM OVC009=



000
FTUS46 KOTX 160538
TAFCOE
TAF
KCOE 160538Z 1606/1706 03012KT P6SM SCT120 BKN200
     FM161100 05010KT P6SM BKN100 OVC120
     FM161600 04007KT P6SM BKN035 OVC050
      AMD LTD TO CLD AND VIS=



000
FTUS46 KOTX 160538
TAFPUW
TAF
KPUW 160538Z 1606/1706 11009KT P6SM SCT120 OVC150
     FM161000 10008KT P6SM BKN060 OVC100
     FM161600 11008KT P6SM OVC050
     FM162000 11006KT P6SM BKN060 OVC100=



000
FTUS46 KOTX 160538
TAFLWS
TAF
KLWS 160538Z 1606/1706 00000KT P6SM SCT120 OVC150
     FM160900 10003KT P6SM SCT050 OVC070
     FM162000 08003KT P6SM BKN070 OVC100=



000
FTUS46 KOTX 160538
TAFSFF
TAF
KSFF 160538Z 1606/1706 00000KT P6SM SCT120 BKN200
     FM161000 00000KT P6SM BKN100 OVC120
     FM161500 00000KT P6SM -SNRA BKN035 OVC050
     FM161800 VRB03KT P6SM -RA SCT035 OVC050
     FM170300 00000KT P6SM SCT030 OVC040=



000
FTUS46 KOTX 160538
TAFMWH
TAF
KMWH 160538Z 1606/1706 36006KT P6SM SCT070 BKN100 OVC150
     FM161300 36006KT P6SM -RA SCT030 OVC050
     FM161800 36006KT P6SM -RA SCT018 OVC030
     FM170000 36004KT P6SM SCT020 OVC035=



000
FTUS46 KOTX 160538
TAFGEG
TAF
KGEG 160538Z 1606/1706 06007KT P6SM SCT120 BKN200
     FM161000 06005KT P6SM BKN100 OVC120
     FM161500 06005KT 6SM -SN SCT015 BKN025 OVC040
     FM161900 06005KT P6SM -RA SCT025 OVC040
     FM170300 08003KT P6SM SCT025 OVC040=



000
FTUS46 KOTX 160538
TAFEAT
TAF
KEAT 160538Z 1606/1706 30003KT P6SM OVC040
     FM161000 29003KT P6SM -RA OVC035
     FM161500 29003KT 6SM -RA BR SCT010 OVC020
     FM162000 29003KT 6SM -RA BR SCT008 OVC012
     FM170400 VRB02KT 6SM BR OVC012=



000
FTUS46 KOTX 160538
TAFGEG
TAF
KGEG 160538Z 1606/1706 06007KT P6SM SCT120 BKN200
     FM161000 06005KT P6SM BKN100 OVC120
     FM161500 06005KT 6SM -SN SCT015 BKN025 OVC040
     FM161900 06005KT P6SM -RA SCT025 OVC040
     FM170300 08003KT P6SM SCT025 OVC040=



000
FTUS46 KOTX 160538
TAFPUW
TAF
KPUW 160538Z 1606/1706 11009KT P6SM SCT120 OVC150
     FM161000 10008KT P6SM BKN060 OVC100
     FM161600 11008KT P6SM OVC050
     FM162000 11006KT P6SM BKN060 OVC100=



000
FTUS46 KOTX 160538
TAFLWS
TAF
KLWS 160538Z 1606/1706 00000KT P6SM SCT120 OVC150
     FM160900 10003KT P6SM SCT050 OVC070
     FM162000 08003KT P6SM BKN070 OVC100=



000
FTUS46 KOTX 160538
TAFSFF
TAF
KSFF 160538Z 1606/1706 00000KT P6SM SCT120 BKN200
     FM161000 00000KT P6SM BKN100 OVC120
     FM161500 00000KT P6SM -SNRA BKN035 OVC050
     FM161800 VRB03KT P6SM -RA SCT035 OVC050
     FM170300 00000KT P6SM SCT030 OVC040=



000
FTUS46 KOTX 160538
TAFCOE
TAF
KCOE 160538Z 1606/1706 03012KT P6SM SCT120 BKN200
     FM161100 05010KT P6SM BKN100 OVC120
     FM161600 04007KT P6SM BKN035 OVC050
      AMD LTD TO CLD AND VIS=



000
FTUS46 KOTX 160538
TAFEAT
TAF
KEAT 160538Z 1606/1706 30003KT P6SM OVC040
     FM161000 29003KT P6SM -RA OVC035
     FM161500 29003KT 6SM -RA BR SCT010 OVC020
     FM162000 29003KT 6SM -RA BR SCT008 OVC012
     FM170400 VRB02KT 6SM BR OVC012=



000
FTUS46 KOTX 160538
TAFMWH
TAF
KMWH 160538Z 1606/1706 36006KT P6SM SCT070 BKN100 OVC150
     FM161300 36006KT P6SM -RA SCT030 OVC050
     FM161800 36006KT P6SM -RA SCT018 OVC030
     FM170000 36004KT P6SM SCT020 OVC035=



000
FTUS46 KOTX 160434 AAA
TAFEAT
TAF AMD
KEAT 160434Z 1605/1624 28003KT P6SM OVC035
     FM161000 29003KT 5SM -RASN BR OVC025
     FM161500 29003KT 3SM -RASN BR BKN010 OVC020
     FM162000 29003KT 4SM -RA BR SCT008 OVC012=



    US Dept of Commerce
    National Oceanic and Atmospheric Administration
    National Weather Service
    1325 East West Highway
    Silver Spring, MD 20910
    Page Author: NWS Internet Services Team
Disclaimer
Information Quality
Credits
Glossary
Privacy Policy
Freedom of Information Act (FOIA)
About Us
Career Opportunities